sensor_id;sensor_type;location;lat;lon;timestamp;P1;durP1;ratioP1;P2;durP2;ratioP2
62353;SDS011;48391;49.184;2.418;2023-06-22T00:01:30;1.67;;;0.45;;
62353;SDS011;48391;49.184;2.418;2023-06-22T00:03:57;0.38;;;0.38;;
62353;SDS011;48391;49.184;2.418;2023-06-22T00:06:23;0.40;;;0.40;;
62353;SDS011;48391;49.184;2.418;2023-06-22T00:08:49;0.63;;;0.57;;
62353;SDS011;48391;49.184;2.418;2023-06-22T00:11:15;0.93;;;0.75;;
62353;SDS011;48391;49.184;2.418;2023-06-22T00:13:41;1.00;;;0.40;;
62353;SDS011;48391;49.184;2.418;2023-06-22T00:16:07;0.47;;;0.47;;
62353;SDS011;48391;49.184;2.418;2023-06-22T00:18:33;0.50;;;0.38;;
62353;SDS011;48391;49.184;2.418;2023-06-22T00:20:59;0.50;;;0.40;;
62353;SDS011;48391;49.184;2.418;2023-06-22T00:23:25;0.30;;;0.30;;
62353;SDS011;48391;49.184;2.418;2023-06-22T00:25:51;0.55;;;0.45;;
62353;SDS011;48391;49.184;2.418;2023-06-22T00:28:17;0.43;;;0.43;;
62353;SDS011;48391;49.184;2.418;2023-06-22T00:30:43;0.40;;;0.40;;
62353;SDS011;48391;49.184;2.418;2023-06-22T00:33:10;0.30;;;0.30;;
62353;SDS011;48391;49.184;2.418;2023-06-22T00:35:36;0.25;;;0.22;;
62353;SDS011;48391;49.184;2.418;2023-06-22T00:38:02;0.20;;;0.20;;
62353;SDS011;48391;49.184;2.418;2023-06-22T00:40:30;1.13;;;0.93;;
62353;SDS011;48391;49.184;2.418;2023-06-22T00:42:57;1.50;;;1.35;;
62353;SDS011;48391;49.184;2.418;2023-06-22T00:45:23;0.60;;;0.60;;
62353;SDS011;48391;49.184;2.418;2023-06-22T00:47:53;0.68;;;0.68;;
62353;SDS011;48391;49.184;2.418;2023-06-22T00:50:23;0.68;;;0.55;;
62353;SDS011;48391;49.184;2.418;2023-06-22T00:52:53;0.50;;;0.32;;
62353;SDS011;48391;49.184;2.418;2023-06-22T00:55:22;0.95;;;0.55;;
62353;SDS011;48391;49.184;2.418;2023-06-22T00:57:48;0.73;;;0.73;;
62353;SDS011;48391;49.184;2.418;2023-06-22T01:00:14;0.55;;;0.55;;
62353;SDS011;48391;49.184;2.418;2023-06-22T01:02:45;0.60;;;0.60;;
62353;SDS011;48391;49.184;2.418;2023-06-22T01:05:14;0.70;;;0.70;;
62353;SDS011;48391;49.184;2.418;2023-06-22T01:10:23;0.55;;;0.55;;
62353;SDS011;48391;49.184;2.418;2023-06-22T01:12:55;1.00;;;0.80;;
62353;SDS011;48391;49.184;2.418;2023-06-22T01:15:25;1.27;;;1.00;;
62353;SDS011;48391;49.184;2.418;2023-06-22T01:17:53;1.20;;;1.00;;
62353;SDS011;48391;49.184;2.418;2023-06-22T01:20:20;0.60;;;0.60;;
62353;SDS011;48391;49.184;2.418;2023-06-22T01:23:36;0.98;;;0.85;;
62353;SDS011;48391;49.184;2.418;2023-06-22T01:25:36;0.75;;;0.65;;
62353;SDS011;48391;49.184;2.418;2023-06-22T01:28:12;1.27;;;0.98;;
62353;SDS011;48391;49.184;2.418;2023-06-22T01:30:43;1.52;;;1.02;;
62353;SDS011;48391;49.184;2.418;2023-06-22T01:33:11;1.58;;;1.48;;
62353;SDS011;48391;49.184;2.418;2023-06-22T01:35:38;0.77;;;0.65;;
62353;SDS011;48391;49.184;2.418;2023-06-22T01:38:04;1.10;;;1.10;;
62353;SDS011;48391;49.184;2.418;2023-06-22T01:40:34;1.25;;;0.85;;
62353;SDS011;48391;49.184;2.418;2023-06-22T01:43:03;0.70;;;0.70;;
62353;SDS011;48391;49.184;2.418;2023-06-22T01:45:30;0.90;;;0.70;;
62353;SDS011;48391;49.184;2.418;2023-06-22T01:47:56;1.13;;;1.00;;
62353;SDS011;48391;49.184;2.418;2023-06-22T01:50:22;1.58;;;0.93;;
62353;SDS011;48391;49.184;2.418;2023-06-22T01:52:48;0.93;;;0.93;;
62353;SDS011;48391;49.184;2.418;2023-06-22T01:55:14;1.63;;;1.08;;
62353;SDS011;48391;49.184;2.418;2023-06-22T01:57:40;0.60;;;0.57;;
62353;SDS011;48391;49.184;2.418;2023-06-22T02:00:11;2.20;;;1.75;;
62353;SDS011;48391;49.184;2.418;2023-06-22T02:02:43;0.88;;;0.88;;
62353;SDS011;48391;49.184;2.418;2023-06-22T02:05:11;1.13;;;1.02;;
62353;SDS011;48391;49.184;2.418;2023-06-22T02:10:14;2.47;;;1.38;;
62353;SDS011;48391;49.184;2.418;2023-06-22T02:12:41;1.65;;;1.52;;
62353;SDS011;48391;49.184;2.418;2023-06-22T02:15:08;1.02;;;0.88;;
62353;SDS011;48391;49.184;2.418;2023-06-22T02:17:38;1.08;;;0.90;;
62353;SDS011;48391;49.184;2.418;2023-06-22T02:20:04;1.00;;;0.90;;
62353;SDS011;48391;49.184;2.418;2023-06-22T02:22:33;0.70;;;0.70;;
62353;SDS011;48391;49.184;2.418;2023-06-22T02:24:59;1.13;;;0.73;;
62353;SDS011;48391;49.184;2.418;2023-06-22T02:27:26;0.88;;;0.70;;
62353;SDS011;48391;49.184;2.418;2023-06-22T02:29:52;0.50;;;0.50;;
62353;SDS011;48391;49.184;2.418;2023-06-22T02:32:18;1.40;;;1.10;;
62353;SDS011;48391;49.184;2.418;2023-06-22T02:34:44;1.42;;;1.17;;
62353;SDS011;48391;49.184;2.418;2023-06-22T02:37:13;2.65;;;2.45;;
62353;SDS011;48391;49.184;2.418;2023-06-22T02:39:42;3.13;;;1.90;;
62353;SDS011;48391;49.184;2.418;2023-06-22T02:42:08;2.70;;;1.60;;
62353;SDS011;48391;49.184;2.418;2023-06-22T02:44:37;1.95;;;1.58;;
62353;SDS011;48391;49.184;2.418;2023-06-22T02:47:03;1.58;;;1.48;;
62353;SDS011;48391;49.184;2.418;2023-06-22T02:49:29;1.50;;;1.40;;
62353;SDS011;48391;49.184;2.418;2023-06-22T02:51:55;2.45;;;2.05;;
62353;SDS011;48391;49.184;2.418;2023-06-22T02:54:21;1.63;;;1.50;;
62353;SDS011;48391;49.184;2.418;2023-06-22T02:56:47;1.55;;;1.40;;
62353;SDS011;48391;49.184;2.418;2023-06-22T02:59:13;1.83;;;1.60;;
62353;SDS011;48391;49.184;2.418;2023-06-22T03:01:39;1.88;;;1.77;;
62353;SDS011;48391;49.184;2.418;2023-06-22T03:04:06;3.42;;;2.42;;
62353;SDS011;48391;49.184;2.418;2023-06-22T03:06:32;1.95;;;1.85;;
62353;SDS011;48391;49.184;2.418;2023-06-22T03:08:59;1.65;;;1.55;;
62353;SDS011;48391;49.184;2.418;2023-06-22T03:11:26;1.80;;;1.67;;
62353;SDS011;48391;49.184;2.418;2023-06-22T03:13:52;2.33;;;1.85;;
62353;SDS011;48391;49.184;2.418;2023-06-22T03:16:18;1.75;;;1.30;;
62353;SDS011;48391;49.184;2.418;2023-06-22T03:18:44;2.25;;;1.48;;
62353;SDS011;48391;49.184;2.418;2023-06-22T03:21:11;1.83;;;1.73;;
62353;SDS011;48391;49.184;2.418;2023-06-22T03:23:37;1.85;;;1.75;;
62353;SDS011;48391;49.184;2.418;2023-06-22T03:26:03;3.05;;;1.92;;
62353;SDS011;48391;49.184;2.418;2023-06-22T03:28:29;1.67;;;1.48;;
62353;SDS011;48391;49.184;2.418;2023-06-22T03:30:57;1.30;;;1.20;;
62353;SDS011;48391;49.184;2.418;2023-06-22T03:33:23;1.25;;;1.20;;
62353;SDS011;48391;49.184;2.418;2023-06-22T03:35:49;1.63;;;1.50;;
62353;SDS011;48391;49.184;2.418;2023-06-22T03:38:16;1.10;;;1.00;;
62353;SDS011;48391;49.184;2.418;2023-06-22T03:40:42;1.08;;;0.98;;
62353;SDS011;48391;49.184;2.418;2023-06-22T03:43:08;1.20;;;1.02;;
62353;SDS011;48391;49.184;2.418;2023-06-22T03:45:34;0.98;;;0.98;;
62353;SDS011;48391;49.184;2.418;2023-06-22T03:48:03;2.53;;;2.08;;
62353;SDS011;48391;49.184;2.418;2023-06-22T03:50:29;1.70;;;1.60;;
62353;SDS011;48391;49.184;2.418;2023-06-22T03:52:55;0.95;;;0.95;;
62353;SDS011;48391;49.184;2.418;2023-06-22T03:55:21;0.90;;;0.90;;
62353;SDS011;48391;49.184;2.418;2023-06-22T03:57:47;0.55;;;0.55;;
62353;SDS011;48391;49.184;2.418;2023-06-22T04:00:14;1.10;;;1.02;;
62353;SDS011;48391;49.184;2.418;2023-06-22T04:02:43;0.93;;;0.93;;
62353;SDS011;48391;49.184;2.418;2023-06-22T04:05:09;0.80;;;0.60;;
62353;SDS011;48391;49.184;2.418;2023-06-22T04:07:35;0.60;;;0.50;;
62353;SDS011;48391;49.184;2.418;2023-06-22T04:10:02;0.85;;;0.85;;
62353;SDS011;48391;49.184;2.418;2023-06-22T04:12:28;1.20;;;0.65;;
62353;SDS011;48391;49.184;2.418;2023-06-22T04:14:54;1.05;;;0.47;;
62353;SDS011;48391;49.184;2.418;2023-06-22T04:17:20;0.50;;;0.50;;
62353;SDS011;48391;49.184;2.418;2023-06-22T04:19:49;0.90;;;0.60;;
62353;SDS011;48391;49.184;2.418;2023-06-22T04:22:15;0.80;;;0.80;;
62353;SDS011;48391;49.184;2.418;2023-06-22T04:24:41;2.00;;;0.50;;
62353;SDS011;48391;49.184;2.418;2023-06-22T04:27:07;0.93;;;0.93;;
62353;SDS011;48391;49.184;2.418;2023-06-22T04:29:34;0.68;;;0.68;;
62353;SDS011;48391;49.184;2.418;2023-06-22T04:32:00;1.17;;;0.90;;
62353;SDS011;48391;49.184;2.418;2023-06-22T04:34:30;0.70;;;0.65;;
62353;SDS011;48391;49.184;2.418;2023-06-22T04:36:56;2.05;;;1.08;;
62353;SDS011;48391;49.184;2.418;2023-06-22T04:39:22;1.05;;;0.93;;
62353;SDS011;48391;49.184;2.418;2023-06-22T04:41:48;1.10;;;1.10;;
62353;SDS011;48391;49.184;2.418;2023-06-22T04:44:18;2.10;;;1.58;;
62353;SDS011;48391;49.184;2.418;2023-06-22T04:46:51;1.90;;;1.33;;
62353;SDS011;48391;49.184;2.418;2023-06-22T04:49:25;2.65;;;1.63;;
62353;SDS011;48391;49.184;2.418;2023-06-22T04:51:57;3.85;;;2.60;;
62353;SDS011;48391;49.184;2.418;2023-06-22T04:54:24;3.85;;;2.22;;
62353;SDS011;48391;49.184;2.418;2023-06-22T04:56:50;1.30;;;1.30;;
62353;SDS011;48391;49.184;2.418;2023-06-22T04:59:21;1.85;;;1.75;;
62353;SDS011;48391;49.184;2.418;2023-06-22T05:01:47;2.20;;;2.00;;
62353;SDS011;48391;49.184;2.418;2023-06-22T05:04:13;4.22;;;3.33;;
62353;SDS011;48391;49.184;2.418;2023-06-22T05:06:39;4.40;;;3.33;;
62353;SDS011;48391;49.184;2.418;2023-06-22T05:09:08;4.30;;;3.50;;
62353;SDS011;48391;49.184;2.418;2023-06-22T05:11:34;2.22;;;2.03;;
62353;SDS011;48391;49.184;2.418;2023-06-22T05:14:00;1.65;;;1.48;;
62353;SDS011;48391;49.184;2.418;2023-06-22T05:16:26;2.75;;;2.20;;
62353;SDS011;48391;49.184;2.418;2023-06-22T05:18:55;1.70;;;1.60;;
62353;SDS011;48391;49.184;2.418;2023-06-22T05:21:22;1.40;;;1.30;;
62353;SDS011;48391;49.184;2.418;2023-06-22T05:23:49;1.10;;;1.00;;
62353;SDS011;48391;49.184;2.418;2023-06-22T05:26:15;1.25;;;1.00;;
62353;SDS011;48391;49.184;2.418;2023-06-22T05:28:41;1.25;;;1.02;;
62353;SDS011;48391;49.184;2.418;2023-06-22T05:31:10;1.23;;;1.10;;
62353;SDS011;48391;49.184;2.418;2023-06-22T05:33:36;1.23;;;0.80;;
62353;SDS011;48391;49.184;2.418;2023-06-22T05:36:02;1.35;;;1.27;;
62353;SDS011;48391;49.184;2.418;2023-06-22T05:38:28;1.65;;;1.55;;
62353;SDS011;48391;49.184;2.418;2023-06-22T05:40:54;1.25;;;1.15;;
62353;SDS011;48391;49.184;2.418;2023-06-22T05:43:20;1.50;;;1.30;;
62353;SDS011;48391;49.184;2.418;2023-06-22T05:45:46;1.50;;;1.38;;
62353;SDS011;48391;49.184;2.418;2023-06-22T05:48:12;1.70;;;1.60;;
62353;SDS011;48391;49.184;2.418;2023-06-22T05:50:39;1.00;;;0.98;;
62353;SDS011;48391;49.184;2.418;2023-06-22T05:53:05;1.40;;;1.27;;
62353;SDS011;48391;49.184;2.418;2023-06-22T05:55:32;2.33;;;1.15;;
62353;SDS011;48391;49.184;2.418;2023-06-22T05:57:58;0.85;;;0.85;;
62353;SDS011;48391;49.184;2.418;2023-06-22T06:00:24;1.88;;;1.73;;
62353;SDS011;48391;49.184;2.418;2023-06-22T06:02:50;2.25;;;2.15;;
62353;SDS011;48391;49.184;2.418;2023-06-22T06:05:16;1.35;;;1.25;;
62353;SDS011;48391;49.184;2.418;2023-06-22T06:07:44;1.50;;;1.40;;
62353;SDS011;48391;49.184;2.418;2023-06-22T06:10:11;1.30;;;1.20;;
62353;SDS011;48391;49.184;2.418;2023-06-22T06:12:37;1.33;;;1.23;;
62353;SDS011;48391;49.184;2.418;2023-06-22T06:15:03;1.25;;;1.15;;
62353;SDS011;48391;49.184;2.418;2023-06-22T06:17:29;0.93;;;0.93;;
62353;SDS011;48391;49.184;2.418;2023-06-22T06:19:56;0.80;;;0.80;;
62353;SDS011;48391;49.184;2.418;2023-06-22T06:22:22;1.10;;;1.08;;
62353;SDS011;48391;49.184;2.418;2023-06-22T06:24:48;1.05;;;0.95;;
62353;SDS011;48391;49.184;2.418;2023-06-22T06:27:15;1.15;;;1.13;;
62353;SDS011;48391;49.184;2.418;2023-06-22T06:29:43;1.30;;;1.20;;
62353;SDS011;48391;49.184;2.418;2023-06-22T06:32:13;1.03;;;0.97;;
62353;SDS011;48391;49.184;2.418;2023-06-22T06:34:39;1.42;;;1.33;;
62353;SDS011;48391;49.184;2.418;2023-06-22T06:37:05;2.40;;;2.20;;
62353;SDS011;48391;49.184;2.418;2023-06-22T06:39:31;1.77;;;1.65;;
62353;SDS011;48391;49.184;2.418;2023-06-22T06:41:57;1.25;;;1.15;;
62353;SDS011;48391;49.184;2.418;2023-06-22T06:44:23;1.35;;;1.23;;
62353;SDS011;48391;49.184;2.418;2023-06-22T06:46:49;1.67;;;0.98;;
62353;SDS011;48391;49.184;2.418;2023-06-22T06:49:15;0.95;;;0.93;;
62353;SDS011;48391;49.184;2.418;2023-06-22T06:51:41;1.60;;;1.27;;
62353;SDS011;48391;49.184;2.418;2023-06-22T06:54:07;0.75;;;0.75;;
62353;SDS011;48391;49.184;2.418;2023-06-22T06:56:33;0.70;;;0.70;;
62353;SDS011;48391;49.184;2.418;2023-06-22T06:59:02;1.58;;;1.48;;
62353;SDS011;48391;49.184;2.418;2023-06-22T07:01:28;1.58;;;1.48;;
62353;SDS011;48391;49.184;2.418;2023-06-22T07:03:58;2.00;;;1.55;;
62353;SDS011;48391;49.184;2.418;2023-06-22T07:06:25;2.45;;;2.25;;
62353;SDS011;48391;49.184;2.418;2023-06-22T07:08:54;2.47;;;2.28;;
62353;SDS011;48391;49.184;2.418;2023-06-22T07:11:20;1.80;;;1.70;;
62353;SDS011;48391;49.184;2.418;2023-06-22T07:13:46;2.58;;;1.77;;
62353;SDS011;48391;49.184;2.418;2023-06-22T07:16:12;4.38;;;2.47;;
62353;SDS011;48391;49.184;2.418;2023-06-22T07:18:39;3.35;;;2.80;;
62353;SDS011;48391;49.184;2.418;2023-06-22T07:21:08;4.88;;;3.95;;
62353;SDS011;48391;49.184;2.418;2023-06-22T07:23:34;4.30;;;2.50;;
62353;SDS011;48391;49.184;2.418;2023-06-22T07:26:00;2.67;;;2.47;;
62353;SDS011;48391;49.184;2.418;2023-06-22T07:28:26;2.55;;;2.35;;
62353;SDS011;48391;49.184;2.418;2023-06-22T07:30:52;3.22;;;2.92;;
62353;SDS011;48391;49.184;2.418;2023-06-22T07:33:19;3.67;;;3.38;;
62353;SDS011;48391;49.184;2.418;2023-06-22T07:35:45;3.58;;;2.85;;
62353;SDS011;48391;49.184;2.418;2023-06-22T07:38:12;3.25;;;2.95;;
62353;SDS011;48391;49.184;2.418;2023-06-22T07:40:39;5.60;;;4.60;;
62353;SDS011;48391;49.184;2.418;2023-06-22T07:43:06;4.60;;;3.80;;
62353;SDS011;48391;49.184;2.418;2023-06-22T07:45:32;10.07;;;3.50;;
62353;SDS011;48391;49.184;2.418;2023-06-22T07:48:00;5.35;;;3.97;;
62353;SDS011;48391;49.184;2.418;2023-06-22T07:50:26;8.05;;;5.85;;
62353;SDS011;48391;49.184;2.418;2023-06-22T07:52:52;6.72;;;5.07;;
62353;SDS011;48391;49.184;2.418;2023-06-22T07:55:18;6.82;;;5.65;;
62353;SDS011;48391;49.184;2.418;2023-06-22T07:57:46;5.68;;;4.82;;
62353;SDS011;48391;49.184;2.418;2023-06-22T08:00:12;4.65;;;4.18;;
62353;SDS011;48391;49.184;2.418;2023-06-22T08:02:40;5.47;;;4.53;;
62353;SDS011;48391;49.184;2.418;2023-06-22T08:05:09;3.47;;;3.25;;
62353;SDS011;48391;49.184;2.418;2023-06-22T08:07:36;3.80;;;2.97;;
62353;SDS011;48391;49.184;2.418;2023-06-22T08:10:03;4.82;;;3.50;;
62353;SDS011;48391;49.184;2.418;2023-06-22T08:12:29;9.48;;;6.10;;
62353;SDS011;48391;49.184;2.418;2023-06-22T08:14:55;4.80;;;4.30;;
62353;SDS011;48391;49.184;2.418;2023-06-22T08:17:22;10.05;;;6.32;;
62353;SDS011;48391;49.184;2.418;2023-06-22T08:19:48;9.13;;;6.13;;
62353;SDS011;48391;49.184;2.418;2023-06-22T08:22:15;6.03;;;4.63;;
62353;SDS011;48391;49.184;2.418;2023-06-22T08:24:41;4.20;;;3.60;;
62353;SDS011;48391;49.184;2.418;2023-06-22T08:27:07;2.97;;;2.60;;
62353;SDS011;48391;49.184;2.418;2023-06-22T08:29:34;3.53;;;3.22;;
62353;SDS011;48391;49.184;2.418;2023-06-22T08:32:03;5.95;;;4.65;;
62353;SDS011;48391;49.184;2.418;2023-06-22T08:34:29;8.88;;;6.00;;
62353;SDS011;48391;49.184;2.418;2023-06-22T08:36:55;7.07;;;5.80;;
62353;SDS011;48391;49.184;2.418;2023-06-22T08:39:21;6.65;;;5.55;;
62353;SDS011;48391;49.184;2.418;2023-06-22T08:41:47;7.20;;;6.28;;
62353;SDS011;48391;49.184;2.418;2023-06-22T08:44:13;7.10;;;5.63;;
62353;SDS011;48391;49.184;2.418;2023-06-22T08:46:39;7.47;;;4.97;;
62353;SDS011;48391;49.184;2.418;2023-06-22T08:49:06;8.88;;;5.72;;
62353;SDS011;48391;49.184;2.418;2023-06-22T08:51:34;6.63;;;5.57;;
62353;SDS011;48391;49.184;2.418;2023-06-22T08:54:00;4.43;;;4.00;;
62353;SDS011;48391;49.184;2.418;2023-06-22T08:56:26;9.30;;;5.85;;
62353;SDS011;48391;49.184;2.418;2023-06-22T08:58:52;8.10;;;6.10;;
62353;SDS011;48391;49.184;2.418;2023-06-22T09:01:18;11.25;;;7.88;;
62353;SDS011;48391;49.184;2.418;2023-06-22T09:03:45;7.03;;;6.15;;
62353;SDS011;48391;49.184;2.418;2023-06-22T09:06:19;6.13;;;5.32;;
62353;SDS011;48391;49.184;2.418;2023-06-22T09:08:46;7.97;;;4.78;;
62353;SDS011;48391;49.184;2.418;2023-06-22T09:11:12;7.80;;;5.28;;
62353;SDS011;48391;49.184;2.418;2023-06-22T09:13:38;5.63;;;4.93;;
62353;SDS011;48391;49.184;2.418;2023-06-22T09:16:04;7.97;;;5.63;;
62353;SDS011;48391;49.184;2.418;2023-06-22T09:18:30;5.70;;;5.15;;
62353;SDS011;48391;49.184;2.418;2023-06-22T09:20:56;8.55;;;5.38;;
62353;SDS011;48391;49.184;2.418;2023-06-22T09:23:22;7.07;;;5.35;;
62353;SDS011;48391;49.184;2.418;2023-06-22T09:25:48;7.75;;;5.95;;
62353;SDS011;48391;49.184;2.418;2023-06-22T09:28:14;7.00;;;5.50;;
62353;SDS011;48391;49.184;2.418;2023-06-22T09:30:42;6.32;;;4.90;;
62353;SDS011;48391;49.184;2.418;2023-06-22T09:33:09;9.63;;;6.82;;
62353;SDS011;48391;49.184;2.418;2023-06-22T09:35:37;5.75;;;5.18;;
62353;SDS011;48391;49.184;2.418;2023-06-22T09:38:03;7.22;;;5.53;;
62353;SDS011;48391;49.184;2.418;2023-06-22T09:40:30;7.68;;;6.03;;
62353;SDS011;48391;49.184;2.418;2023-06-22T09:42:57;7.43;;;4.97;;
62353;SDS011;48391;49.184;2.418;2023-06-22T09:45:23;7.68;;;6.13;;
62353;SDS011;48391;49.184;2.418;2023-06-22T09:47:49;6.47;;;5.28;;
62353;SDS011;48391;49.184;2.418;2023-06-22T09:50:16;10.52;;;5.05;;
62353;SDS011;48391;49.184;2.418;2023-06-22T09:52:42;7.75;;;5.63;;
62353;SDS011;48391;49.184;2.418;2023-06-22T09:55:11;5.35;;;4.32;;
62353;SDS011;48391;49.184;2.418;2023-06-22T09:57:37;5.75;;;5.20;;
62353;SDS011;48391;49.184;2.418;2023-06-22T10:00:03;3.78;;;3.38;;
62353;SDS011;48391;49.184;2.418;2023-06-22T10:02:33;6.07;;;5.25;;
62353;SDS011;48391;49.184;2.418;2023-06-22T10:04:59;5.20;;;3.92;;
62353;SDS011;48391;49.184;2.418;2023-06-22T10:07:25;8.88;;;5.25;;
62353;SDS011;48391;49.184;2.418;2023-06-22T10:09:51;4.50;;;4.10;;
62353;SDS011;48391;49.184;2.418;2023-06-22T10:12:17;3.30;;;3.00;;
62353;SDS011;48391;49.184;2.418;2023-06-22T10:14:43;4.57;;;4.18;;
62353;SDS011;48391;49.184;2.418;2023-06-22T10:17:09;5.40;;;4.90;;
62353;SDS011;48391;49.184;2.418;2023-06-22T10:19:38;3.60;;;3.30;;
62353;SDS011;48391;49.184;2.418;2023-06-22T10:22:06;4.60;;;4.13;;
62353;SDS011;48391;49.184;2.418;2023-06-22T10:24:35;4.43;;;3.45;;
62353;SDS011;48391;49.184;2.418;2023-06-22T10:27:03;4.47;;;3.00;;
62353;SDS011;48391;49.184;2.418;2023-06-22T10:29:29;4.30;;;3.90;;
62353;SDS011;48391;49.184;2.418;2023-06-22T10:31:55;4.38;;;3.75;;
62353;SDS011;48391;49.184;2.418;2023-06-22T10:34:21;6.28;;;4.63;;
62353;SDS011;48391;49.184;2.418;2023-06-22T10:36:47;4.30;;;3.90;;
62353;SDS011;48391;49.184;2.418;2023-06-22T10:39:14;5.25;;;4.20;;
62353;SDS011;48391;49.184;2.418;2023-06-22T10:41:40;2.67;;;2.40;;
62353;SDS011;48391;49.184;2.418;2023-06-22T10:44:06;4.60;;;4.18;;
62353;SDS011;48391;49.184;2.418;2023-06-22T10:46:37;3.20;;;2.90;;
62353;SDS011;48391;49.184;2.418;2023-06-22T10:49:03;4.20;;;3.80;;
62353;SDS011;48391;49.184;2.418;2023-06-22T10:51:29;5.00;;;4.50;;
62353;SDS011;48391;49.184;2.418;2023-06-22T10:53:56;5.68;;;4.57;;
62353;SDS011;48391;49.184;2.418;2023-06-22T10:56:22;4.90;;;4.40;;
62353;SDS011;48391;49.184;2.418;2023-06-22T10:58:48;5.20;;;3.88;;
62353;SDS011;48391;49.184;2.418;2023-06-22T11:01:14;6.82;;;5.90;;
62353;SDS011;48391;49.184;2.418;2023-06-22T11:03:40;7.85;;;6.22;;
62353;SDS011;48391;49.184;2.418;2023-06-22T11:06:06;4.78;;;4.28;;
62353;SDS011;48391;49.184;2.418;2023-06-22T11:08:32;3.33;;;2.80;;
62353;SDS011;48391;49.184;2.418;2023-06-22T11:10:58;3.85;;;3.55;;
62353;SDS011;48391;49.184;2.418;2023-06-22T11:13:24;6.70;;;6.10;;
62353;SDS011;48391;49.184;2.418;2023-06-22T11:15:50;4.25;;;3.85;;
62353;SDS011;48391;49.184;2.418;2023-06-22T11:18:16;5.55;;;5.00;;
62353;SDS011;48391;49.184;2.418;2023-06-22T11:20:43;6.70;;;5.97;;
62353;SDS011;48391;49.184;2.418;2023-06-22T11:23:09;7.72;;;6.05;;
62353;SDS011;48391;49.184;2.418;2023-06-22T11:25:37;5.85;;;5.25;;
62353;SDS011;48391;49.184;2.418;2023-06-22T11:28:03;6.78;;;4.40;;
62353;SDS011;48391;49.184;2.418;2023-06-22T11:30:29;7.72;;;5.13;;
62353;SDS011;48391;49.184;2.418;2023-06-22T11:32:56;6.55;;;5.78;;
62353;SDS011;48391;49.184;2.418;2023-06-22T11:35:23;3.95;;;3.38;;
62353;SDS011;48391;49.184;2.418;2023-06-22T11:37:50;3.80;;;3.50;;
62353;SDS011;48391;49.184;2.418;2023-06-22T11:40:16;6.95;;;5.40;;
62353;SDS011;48391;49.184;2.418;2023-06-22T11:42:43;4.35;;;3.90;;
62353;SDS011;48391;49.184;2.418;2023-06-22T11:45:09;3.72;;;3.35;;
62353;SDS011;48391;49.184;2.418;2023-06-22T11:47:38;4.28;;;3.80;;
62353;SDS011;48391;49.184;2.418;2023-06-22T11:50:04;3.42;;;3.13;;
62353;SDS011;48391;49.184;2.418;2023-06-22T11:52:30;5.20;;;4.63;;
62353;SDS011;48391;49.184;2.418;2023-06-22T11:54:56;4.07;;;3.63;;
62353;SDS011;48391;49.184;2.418;2023-06-22T11:57:24;7.05;;;6.40;;
62353;SDS011;48391;49.184;2.418;2023-06-22T11:59:50;5.00;;;4.60;;
62353;SDS011;48391;49.184;2.418;2023-06-22T12:02:16;5.25;;;3.97;;
62353;SDS011;48391;49.184;2.418;2023-06-22T12:04:42;3.30;;;3.00;;
62353;SDS011;48391;49.184;2.418;2023-06-22T12:07:11;3.97;;;3.58;;
62353;SDS011;48391;49.184;2.418;2023-06-22T12:09:37;3.40;;;3.10;;
62353;SDS011;48391;49.184;2.418;2023-06-22T12:12:03;3.58;;;3.28;;
62353;SDS011;48391;49.184;2.418;2023-06-22T12:14:30;3.40;;;3.20;;
62353;SDS011;48391;49.184;2.418;2023-06-22T12:16:56;2.67;;;2.47;;
62353;SDS011;48391;49.184;2.418;2023-06-22T12:19:22;4.47;;;4.07;;
62353;SDS011;48391;49.184;2.418;2023-06-22T12:21:48;3.30;;;3.00;;
62353;SDS011;48391;49.184;2.418;2023-06-22T12:24:14;3.88;;;3.20;;
62353;SDS011;48391;49.184;2.418;2023-06-22T12:26:40;2.67;;;2.47;;
62353;SDS011;48391;49.184;2.418;2023-06-22T12:29:06;1.52;;;1.42;;
62353;SDS011;48391;49.184;2.418;2023-06-22T12:31:32;6.78;;;5.07;;
62353;SDS011;48391;49.184;2.418;2023-06-22T12:33:58;2.55;;;2.35;;
62353;SDS011;48391;49.184;2.418;2023-06-22T12:36:24;3.63;;;3.33;;
62353;SDS011;48391;49.184;2.418;2023-06-22T12:38:50;3.95;;;3.65;;
62353;SDS011;48391;49.184;2.418;2023-06-22T12:41:16;3.22;;;2.95;;
62353;SDS011;48391;49.184;2.418;2023-06-22T12:43:42;3.05;;;2.78;;
62353;SDS011;48391;49.184;2.418;2023-06-22T12:46:09;3.05;;;2.75;;
62353;SDS011;48391;49.184;2.418;2023-06-22T12:48:35;2.75;;;2.55;;
62353;SDS011;48391;49.184;2.418;2023-06-22T12:51:06;3.15;;;2.78;;
62353;SDS011;48391;49.184;2.418;2023-06-22T12:53:33;2.58;;;2.17;;
62353;SDS011;48391;49.184;2.418;2023-06-22T12:55:59;3.28;;;2.92;;
62353;SDS011;48391;49.184;2.418;2023-06-22T12:58:25;3.15;;;2.33;;
62353;SDS011;48391;49.184;2.418;2023-06-22T13:00:51;3.30;;;3.00;;
62353;SDS011;48391;49.184;2.418;2023-06-22T13:03:17;3.47;;;2.72;;
62353;SDS011;48391;49.184;2.418;2023-06-22T13:05:43;6.13;;;5.47;;
62353;SDS011;48391;49.184;2.418;2023-06-22T13:08:09;3.58;;;3.28;;
62353;SDS011;48391;49.184;2.418;2023-06-22T13:10:36;4.40;;;4.00;;
62353;SDS011;48391;49.184;2.418;2023-06-22T13:13:02;3.60;;;3.30;;
62353;SDS011;48391;49.184;2.418;2023-06-22T13:15:28;3.00;;;2.80;;
62353;SDS011;48391;49.184;2.418;2023-06-22T13:17:54;3.08;;;2.47;;
62353;SDS011;48391;49.184;2.418;2023-06-22T13:20:21;3.47;;;3.15;;
62353;SDS011;48391;49.184;2.418;2023-06-22T13:22:47;3.00;;;2.80;;
62353;SDS011;48391;49.184;2.418;2023-06-22T13:25:13;4.32;;;3.92;;
62353;SDS011;48391;49.184;2.418;2023-06-22T13:27:44;2.70;;;2.50;;
62353;SDS011;48391;49.184;2.418;2023-06-22T13:30:10;3.65;;;2.88;;
62353;SDS011;48391;49.184;2.418;2023-06-22T13:32:36;3.53;;;3.25;;
62353;SDS011;48391;49.184;2.418;2023-06-22T13:35:02;6.57;;;3.95;;
62353;SDS011;48391;49.184;2.418;2023-06-22T13:37:28;3.42;;;3.22;;
62353;SDS011;48391;49.184;2.418;2023-06-22T13:39:54;3.88;;;3.45;;
62353;SDS011;48391;49.184;2.418;2023-06-22T13:42:21;3.97;;;3.53;;
62353;SDS011;48391;49.184;2.418;2023-06-22T13:44:47;4.57;;;3.53;;
62353;SDS011;48391;49.184;2.418;2023-06-22T13:47:13;3.78;;;3.47;;
62353;SDS011;48391;49.184;2.418;2023-06-22T13:49:39;3.97;;;3.53;;
62353;SDS011;48391;49.184;2.418;2023-06-22T13:52:05;2.58;;;2.38;;
62353;SDS011;48391;49.184;2.418;2023-06-22T13:54:37;1.95;;;1.85;;
62353;SDS011;48391;49.184;2.418;2023-06-22T13:57:03;4.00;;;3.70;;
62353;SDS011;48391;49.184;2.418;2023-06-22T13:59:29;5.88;;;3.92;;
62353;SDS011;48391;49.184;2.418;2023-06-22T14:01:56;4.38;;;2.83;;
62353;SDS011;48391;49.184;2.418;2023-06-22T14:04:24;4.75;;;2.15;;
62353;SDS011;48391;49.184;2.418;2023-06-22T14:06:50;2.20;;;2.00;;
62353;SDS011;48391;49.184;2.418;2023-06-22T14:09:16;2.88;;;2.30;;
62353;SDS011;48391;49.184;2.418;2023-06-22T14:11:42;2.30;;;1.90;;
62353;SDS011;48391;49.184;2.418;2023-06-22T14:14:08;2.10;;;1.92;;
62353;SDS011;48391;49.184;2.418;2023-06-22T14:16:34;2.30;;;2.20;;
62353;SDS011;48391;49.184;2.418;2023-06-22T14:19:03;2.50;;;2.35;;
62353;SDS011;48391;49.184;2.418;2023-06-22T14:21:29;2.75;;;2.55;;
62353;SDS011;48391;49.184;2.418;2023-06-22T14:23:55;1.20;;;1.20;;
62353;SDS011;48391;49.184;2.418;2023-06-22T14:26:22;1.33;;;1.27;;
62353;SDS011;48391;49.184;2.418;2023-06-22T14:28:48;1.70;;;1.23;;
62353;SDS011;48391;49.184;2.418;2023-06-22T14:31:17;0.98;;;0.98;;
62353;SDS011;48391;49.184;2.418;2023-06-22T14:33:46;1.33;;;1.23;;
62353;SDS011;48391;49.184;2.418;2023-06-22T14:36:12;1.63;;;1.52;;
62353;SDS011;48391;49.184;2.418;2023-06-22T14:38:38;1.30;;;1.20;;
62353;SDS011;48391;49.184;2.418;2023-06-22T14:41:04;1.15;;;1.05;;
62353;SDS011;48391;49.184;2.418;2023-06-22T14:43:31;2.78;;;1.02;;
62353;SDS011;48391;49.184;2.418;2023-06-22T14:45:57;0.70;;;0.70;;
62353;SDS011;48391;49.184;2.418;2023-06-22T14:48:23;1.48;;;1.38;;
62353;SDS011;48391;49.184;2.418;2023-06-22T14:50:49;1.45;;;1.35;;